Time;durP1;ratioP1;P1;durP2;ratioP2;P2;SDS_P1;SDS_P2;PMS_P1;PMS_P2;Temp;Humidity;BMP_temperature;BMP_pressure;BME280_temperature;BME280_humidity;BME280_pressure;Samples;Min_cycle;Max_cycle;Signal;HPM_P1;HPM_P2
2023/09/16 00:02:22;;;;;;;0.15;0.15;;;16.00;99.90;;;;;;5121029;27;20043;-67
2023/09/16 00:04:48;;;;;;;0.50;0.50;;;16.00;99.90;;;;;;5104837;27;20104;-67
2023/09/16 00:07:15;;;;;;;2.10;0.50;;;16.00;99.90;;;;;;5126419;27;20131;-67
2023/09/16 00:09:41;;;;;;;0.47;0.30;;;15.90;99.90;;;;;;5122673;27;20055;-67
2023/09/16 00:12:07;;;;;;;0.20;0.20;;;16.00;99.90;;;;;;5120725;27;20042;-67
2023/09/16 00:14:33;;;;;;;0.22;0.22;;;16.00;99.90;;;;;;5125722;27;20048;-67
2023/09/16 00:17:02;;;;;;;0.38;0.38;;;15.90;99.90;;;;;;5104529;28;20039;-67
2023/09/16 00:19:28;;;;;;;0.20;0.20;;;15.90;99.90;;;;;;5116524;27;20100;-67
2023/09/16 00:21:54;;;;;;;1.63;1.52;;;15.90;99.90;;;;;;5122902;27;20424;-67
2023/09/16 00:24:20;;;;;;;0.50;0.47;;;15.80;99.90;;;;;;5120709;27;20044;-67
2023/09/16 00:26:45;;;;;;;0.93;0.43;;;15.90;99.90;;;;;;5128700;27;20501;-67
2023/09/16 00:29:11;;;;;;;0.75;0.75;;;15.90;99.90;;;;;;5117643;27;20041;-67
2023/09/16 00:31:37;;;;;;;0.40;0.40;;;15.90;99.90;;;;;;5124627;27;20069;-67
2023/09/16 00:34:03;;;;;;;0.55;0.52;;;15.80;99.90;;;;;;5125784;27;20135;-67
2023/09/16 00:36:29;;;;;;;0.10;0.10;;;15.80;99.90;;;;;;5124682;27;20046;-67
2023/09/16 00:38:54;;;;;;;5.50;0.68;;;15.90;99.90;;;;;;5124123;27;20032;-66
2023/09/16 00:41:20;;;;;;;2.42;1.05;;;15.90;99.90;;;;;;5126335;27;20127;-67
2023/09/16 00:43:46;;;;;;;0.00;0.00;;;15.90;99.90;;;;;;5123495;27;20116;-67
2023/09/16 00:46:11;;;;;;;0.43;0.43;;;15.90;99.90;;;;;;5117808;27;20038;-67
2023/09/16 00:48:38;;;;;;;1.70;1.35;;;15.90;99.90;;;;;;5126478;27;20035;-67
2023/09/16 00:51:06;;;;;;;0.08;0.08;;;15.90;99.90;;;;;;5125122;27;20031;-67
2023/09/16 00:53:32;;;;;;;0.57;0.57;;;15.90;99.90;;;;;;5099007;27;20118;-67
2023/09/16 00:55:58;;;;;;;14.90;0.73;;;15.80;99.90;;;;;;5124211;27;20047;-67
2023/09/16 00:58:24;;;;;;;0.38;0.22;;;15.80;99.90;;;;;;5123062;27;20043;-67
2023/09/16 01:00:50;;;;;;;0.10;0.10;;;15.80;99.90;;;;;;5125899;27;20497;-67
2023/09/16 01:03:16;;;;;;;0.70;0.70;;;15.80;99.90;;;;;;5118514;27;20047;-67
2023/09/16 01:05:46;;;;;;;0.52;0.52;;;15.80;99.90;;;;;;5124907;27;20051;-67
2023/09/16 01:08:12;;;;;;;0.30;0.30;;;15.80;99.90;;;;;;5125932;27;20042;-67
2023/09/16 01:10:40;;;;;;;0.43;0.43;;;15.80;99.90;;;;;;5121943;27;20047;-67
2023/09/16 01:13:06;;;;;;;1.58;0.47;;;15.80;99.90;;;;;;5121696;27;20043;-67
2023/09/16 01:15:37;;;;;;;1.25;1.05;;;15.80;99.90;;;;;;5098954;27;20402;-67
2023/09/16 01:18:22;;;;;;;0.13;0.13;;;15.80;99.90;;;;;;5125887;27;20070;-67
2023/09/16 01:20:49;;;;;;;1.38;0.65;;;15.80;99.90;;;;;;5116906;27;20095;-67
2023/09/16 01:23:18;;;;;;;1.65;1.02;;;15.70;99.90;;;;;;5128431;27;20377;-67
2023/09/16 01:25:44;;;;;;;0.13;0.13;;;15.70;99.90;;;;;;5105086;27;20047;-67
2023/09/16 01:28:10;;;;;;;0.10;0.10;;;15.80;99.90;;;;;;5121306;27;20037;-67
2023/09/16 01:30:42;;;;;;;0.80;0.57;;;15.70;99.90;;;;;;5128067;27;20134;-67
2023/09/16 01:33:50;;;;;;;0.32;0.32;;;15.70;99.90;;;;;;5121090;27;20090;-67
2023/09/16 01:36:25;;;;;;;0.38;0.38;;;15.60;99.90;;;;;;5061615;28;20044;-67
2023/09/16 01:48:07;;;;;;;0.85;0.65;;;15.50;99.90;;;;;;4966065;28;20509;-63
2023/09/16 01:50:33;;;;;;;0.10;0.10;;;15.50;99.90;;;;;;4972310;28;20086;-64
2023/09/16 01:52:59;;;;;;;1.33;0.88;;;15.40;99.90;;;;;;4970812;28;20039;-63
2023/09/16 01:55:24;;;;;;;0.50;0.50;;;15.40;99.90;;;;;;4972508;28;20398;-63
2023/09/16 01:57:50;;;;;;;0.40;0.40;;;15.40;99.90;;;;;;4973968;28;20046;-64
2023/09/16 02:00:16;;;;;;;0.32;0.32;;;15.40;99.90;;;;;;4972203;28;20038;-63
2023/09/16 02:02:41;;;;;;;0.08;0.08;;;15.40;99.90;;;;;;4973252;28;20042;-63
2023/09/16 02:05:07;;;;;;;0.65;0.52;;;15.40;99.90;;;;;;4974070;28;20486;-63
2023/09/16 02:07:33;;;;;;;0.70;0.70;;;15.30;99.90;;;;;;4974216;28;20133;-64
2023/09/16 02:09:58;;;;;;;2.25;2.05;;;15.40;99.90;;;;;;4963724;28;20137;-64
2023/09/16 02:12:24;;;;;;;0.55;0.35;;;15.40;99.90;;;;;;4973517;28;20062;-63
2023/09/16 02:14:51;;;;;;;2.75;2.25;;;15.40;99.90;;;;;;4973114;28;20042;-63
2023/09/16 02:17:17;;;;;;;0.47;0.47;;;15.30;99.90;;;;;;4972272;28;20162;-63
2023/09/16 02:19:43;;;;;;;0.20;0.20;;;15.40;99.90;;;;;;4973807;28;20058;-64
2023/09/16 02:22:09;;;;;;;0.13;0.13;;;15.30;99.90;;;;;;4972694;28;20042;-63
2023/09/16 02:24:34;;;;;;;0.30;0.30;;;15.30;99.90;;;;;;4971957;28;20039;-63
2023/09/16 02:27:00;;;;;;;0.50;0.47;;;15.30;99.90;;;;;;4971984;28;20070;-63
2023/09/16 02:29:25;;;;;;;0.70;0.43;;;15.20;99.90;;;;;;4972228;28;20429;-63
2023/09/16 02:31:51;;;;;;;1.55;0.90;;;15.20;99.90;;;;;;4973172;28;20046;-64
2023/09/16 02:34:17;;;;;;;0.05;0.05;;;15.20;99.90;;;;;;4973218;28;20050;-64
2023/09/16 02:36:42;;;;;;;0.55;0.55;;;15.20;99.90;;;;;;4953010;28;20417;-63
2023/09/16 02:39:08;;;;;;;1.33;0.77;;;15.20;99.90;;;;;;4972953;28;20039;-64
2023/09/16 02:41:34;;;;;;;1.40;1.00;;;15.20;99.90;;;;;;4971543;28;20043;-63
2023/09/16 02:43:59;;;;;;;0.10;0.10;;;15.10;99.90;;;;;;4970713;28;20045;-64
2023/09/16 02:46:25;;;;;;;1.35;0.75;;;15.10;99.90;;;;;;4972831;28;20438;-63
2023/09/16 02:48:51;;;;;;;0.20;0.20;;;15.10;99.90;;;;;;4972522;28;20047;-63
2023/09/16 02:51:16;;;;;;;1.02;0.95;;;15.10;99.90;;;;;;4970279;28;20057;-63
2023/09/16 02:53:43;;;;;;;0.50;0.50;;;15.10;99.90;;;;;;4972799;28;20383;-63
2023/09/16 02:56:09;;;;;;;0.63;0.63;;;15.10;99.90;;;;;;4971278;28;20042;-63
2023/09/16 02:58:35;;;;;;;0.10;0.10;;;15.10;99.90;;;;;;4971814;28;20118;-64
2023/09/16 03:01:08;;;;;;;1.02;1.02;;;15.10;99.90;;;;;;4973168;28;20087;-64
2023/09/16 03:03:34;;;;;;;0.50;0.50;;;15.10;99.90;;;;;;4971154;28;20042;-63
2023/09/16 03:05:59;;;;;;;0.20;0.20;;;15.00;99.90;;;;;;4953511;28;20414;-64
2023/09/16 03:08:25;;;;;;;0.55;0.55;;;15.00;99.90;;;;;;4972711;28;20488;-64
2023/09/16 03:10:51;;;;;;;0.05;0.05;;;15.00;99.90;;;;;;4953611;28;20051;-64
2023/09/16 03:13:16;;;;;;;1.08;1.02;;;15.00;99.90;;;;;;4972052;28;20039;-64
2023/09/16 03:15:47;;;;;;;0.40;0.40;;;14.90;99.90;;;;;;4971513;28;20043;-63
2023/09/16 03:18:13;;;;;;;0.20;0.20;;;14.90;99.90;;;;;;4970327;28;20145;-63
2023/09/16 03:20:38;;;;;;;0.60;0.60;;;14.90;99.90;;;;;;4972584;28;20521;-64
2023/09/16 03:23:04;;;;;;;0.98;0.98;;;14.90;99.90;;;;;;4972752;28;20038;-64
2023/09/16 03:25:30;;;;;;;0.28;0.28;;;14.90;99.90;;;;;;4972312;28;20109;-64
2023/09/16 03:27:55;;;;;;;4.45;0.75;;;14.90;99.90;;;;;;4970743;28;20049;-64
2023/09/16 03:30:21;;;;;;;1.88;1.05;;;14.90;99.90;;;;;;4972824;28;20046;-64
2023/09/16 03:32:46;;;;;;;0.90;0.90;;;14.90;99.90;;;;;;4972131;28;20039;-64
2023/09/16 03:35:12;;;;;;;0.47;0.47;;;14.90;99.90;;;;;;4970714;28;20609;-63
2023/09/16 03:37:38;;;;;;;0.77;0.77;;;14.80;99.90;;;;;;4972458;28;20406;-63
2023/09/16 03:40:04;;;;;;;0.60;0.60;;;14.80;99.90;;;;;;4954402;28;20047;-64
2023/09/16 03:42:29;;;;;;;0.55;0.47;;;14.70;99.90;;;;;;4964468;28;20510;-63
2023/09/16 03:44:55;;;;;;;1.98;0.82;;;14.70;99.90;;;;;;4970805;28;20043;-64
2023/09/16 03:47:20;;;;;;;0.40;0.40;;;14.70;99.90;;;;;;4971569;28;20571;-64
2023/09/16 03:49:46;;;;;;;0.77;0.77;;;14.70;99.90;;;;;;4970538;28;20079;-64
2023/09/16 03:52:12;;;;;;;0.30;0.30;;;14.80;99.90;;;;;;4972656;28;20043;-63
2023/09/16 03:54:37;;;;;;;2.50;1.00;;;14.70;99.90;;;;;;4952262;28;20137;-64
2023/09/16 03:57:03;;;;;;;1.45;1.23;;;14.60;99.90;;;;;;4972276;28;20043;-64
2023/09/16 03:59:29;;;;;;;0.15;0.15;;;14.60;99.90;;;;;;4971096;28;20109;-64
2023/09/16 04:01:54;;;;;;;1.38;0.77;;;14.50;99.90;;;;;;4974857;28;20050;-64
2023/09/16 04:04:20;;;;;;;2.15;1.92;;;14.50;99.90;;;;;;4974122;28;20039;-63
2023/09/16 04:06:45;;;;;;;0.32;0.30;;;14.50;99.90;;;;;;4975888;28;20053;-63
2023/09/16 04:09:11;;;;;;;0.30;0.30;;;14.50;99.90;;;;;;4957783;28;20085;-63
2023/09/16 04:11:36;;;;;;;1.42;1.02;;;14.50;99.90;;;;;;4956262;28;20394;-63
2023/09/16 04:14:02;;;;;;;0.77;0.77;;;14.50;99.90;;;;;;4975689;28;20049;-63
2023/09/16 04:16:28;;;;;;;0.65;0.60;;;14.40;99.90;;;;;;4975039;28;20058;-64
2023/09/16 04:18:53;;;;;;;0.98;0.98;;;14.40;99.90;;;;;;4973567;28;20130;-63
2023/09/16 04:21:19;;;;;;;0.82;0.82;;;14.40;99.90;;;;;;4975663;28;20130;-64
2023/09/16 04:23:45;;;;;;;2.38;1.27;;;14.40;99.90;;;;;;4972888;28;20038;-63
2023/09/16 04:26:14;;;;;;;0.20;0.20;;;14.40;99.90;;;;;;4975592;28;20046;-63
2023/09/16 04:28:40;;;;;;;1.00;0.82;;;14.30;99.90;;;;;;4974697;28;20061;-63
2023/09/16 04:31:08;;;;;;;0.45;0.45;;;14.30;99.90;;;;;;4975373;28;20051;-64
2023/09/16 04:33:34;;;;;;;0.60;0.52;;;14.40;99.90;;;;;;4956216;28;20047;-63
2023/09/16 04:36:00;;;;;;;1.05;0.85;;;14.30;99.90;;;;;;4971863;28;20094;-63
2023/09/16 04:38:26;;;;;;;1.95;1.08;;;14.30;99.90;;;;;;4957794;28;20042;-64
2023/09/16 04:40:52;;;;;;;0.65;0.55;;;14.30;99.90;;;;;;4975175;28;20193;-64
2023/09/16 04:43:17;;;;;;;0.20;0.20;;;14.30;99.90;;;;;;4972731;28;20047;-64
2023/09/16 04:45:48;;;;;;;0.10;0.10;;;14.20;99.90;;;;;;4975072;28;20073;-63
2023/09/16 04:48:15;;;;;;;0.90;0.90;;;14.20;99.90;;;;;;4972800;28;20061;-64
2023/09/16 04:50:47;;;;;;;1.73;1.15;;;14.20;99.90;;;;;;4955106;28;20046;-63
2023/09/16 04:53:14;;;;;;;4.82;1.30;;;14.20;99.90;;;;;;4975027;28;20050;-64
2023/09/16 04:55:41;;;;;;;0.85;0.85;;;14.20;99.90;;;;;;4972967;28;20638;-63
2023/09/16 04:58:07;;;;;;;0.40;0.40;;;14.20;99.90;;;;;;4973976;28;20086;-64
2023/09/16 05:00:35;;;;;;;0.28;0.28;;;14.20;99.90;;;;;;4957270;28;20128;-63
2023/09/16 05:03:01;;;;;;;1.08;0.98;;;14.30;99.90;;;;;;4979130;28;20141;-63
2023/09/16 05:05:26;;;;;;;2.08;0.57;;;14.20;99.90;;;;;;4973977;28;20130;-63
2023/09/16 05:07:52;;;;;;;0.32;0.32;;;14.20;99.90;;;;;;4974942;28;20050;-64
2023/09/16 05:10:18;;;;;;;0.35;0.35;;;14.30;99.90;;;;;;4974772;28;20823;-64
2023/09/16 05:12:43;;;;;;;1.48;1.20;;;14.20;99.90;;;;;;4971374;28;20043;-63
2023/09/16 05:15:10;;;;;;;1.33;1.23;;;14.20;99.90;;;;;;4974616;28;20062;-63
2023/09/16 05:17:37;;;;;;;0.40;0.40;;;14.20;99.90;;;;;;4973074;28;20498;-63
2023/09/16 05:20:04;;;;;;;0.73;0.73;;;14.20;99.90;;;;;;4956183;28;20059;-63
2023/09/16 05:22:29;;;;;;;0.10;0.10;;;14.20;99.90;;;;;;4972265;28;20058;-64
2023/09/16 05:24:55;;;;;;;0.28;0.28;;;14.20;99.90;;;;;;4973755;28;20122;-63
2023/09/16 05:27:22;;;;;;;0.47;0.47;;;14.20;99.90;;;;;;4974388;28;20394;-64
2023/09/16 05:29:54;;;;;;;0.28;0.28;;;14.20;99.90;;;;;;4956904;28;20549;-64
2023/09/16 05:32:20;;;;;;;0.63;0.63;;;14.20;99.90;;;;;;4965888;28;20390;-64
2023/09/16 05:34:46;;;;;;;0.13;0.13;;;14.20;99.90;;;;;;4974066;28;20085;-64
2023/09/16 05:37:12;;;;;;;0.60;0.57;;;14.20;99.90;;;;;;4973146;28;20402;-64
2023/09/16 05:39:37;;;;;;;0.40;0.40;;;14.20;99.90;;;;;;4973776;28;20039;-64
2023/09/16 05:42:03;;;;;;;0.22;0.22;;;14.20;99.90;;;;;;4957096;28;20406;-64
2023/09/16 05:44:29;;;;;;;0.20;0.20;;;14.20;99.90;;;;;;4956898;28;20114;-64
2023/09/16 05:46:55;;;;;;;1.88;1.17;;;14.20;99.90;;;;;;4969903;28;20117;-64
2023/09/16 05:49:21;;;;;;;0.17;0.17;;;14.20;99.90;;;;;;4973866;28;20129;-64
2023/09/16 05:51:46;;;;;;;1.02;0.85;;;14.20;99.90;;;;;;4972078;28;20130;-63
2023/09/16 05:54:14;;;;;;;0.60;0.60;;;14.30;99.90;;;;;;4973143;28;20371;-64
2023/09/16 05:56:42;;;;;;;0.20;0.20;;;14.30;99.90;;;;;;4954877;28;20127;-63
2023/09/16 05:59:08;;;;;;;0.65;0.30;;;14.30;99.90;;;;;;4973536;28;20127;-64
2023/09/16 06:01:34;;;;;;;0.70;0.70;;;14.30;99.90;;;;;;4970704;28;20042;-64
2023/09/16 06:04:00;;;;;;;0.28;0.28;;;14.40;99.90;;;;;;4971847;28;20486;-64
2023/09/16 06:06:25;;;;;;;0.93;0.93;;;14.30;99.90;;;;;;4973732;28;20054;-63
2023/09/16 06:08:51;;;;;;;0.35;0.20;;;14.40;99.90;;;;;;4955566;28;20218;-64
2023/09/16 06:11:16;;;;;;;0.20;0.20;;;14.50;99.90;;;;;;4971832;28;20085;-63
2023/09/16 06:13:42;;;;;;;0.52;0.52;;;14.50;99.90;;;;;;4973605;28;20520;-63
2023/09/16 06:16:08;;;;;;;2.13;0.70;;;14.50;99.90;;;;;;4955499;28;20043;-63
2023/09/16 06:18:35;;;;;;;0.40;0.30;;;14.60;99.90;;;;;;4971628;28;20050;-64
2023/09/16 06:21:01;;;;;;;0.13;0.13;;;14.60;99.90;;;;;;4971444;28;20108;-63
2023/09/16 06:23:27;;;;;;;0.20;0.20;;;14.70;99.90;;;;;;4973140;28;20051;-64
2023/09/16 06:25:53;;;;;;;0.60;0.40;;;14.70;99.90;;;;;;4972854;28;20058;-64
2023/09/16 06:28:18;;;;;;;0.15;0.15;;;14.70;99.90;;;;;;4970913;28;20046;-64
2023/09/16 06:30:44;;;;;;;0.30;0.30;;;14.80;99.90;;;;;;4973224;28;20066;-63
2023/09/16 06:33:10;;;;;;;0.40;0.40;;;14.80;99.90;;;;;;4972959;28;20049;-64
2023/09/16 06:35:35;;;;;;;0.63;0.63;;;14.90;99.90;;;;;;4970507;28;20505;-64
2023/09/16 06:38:01;;;;;;;0.10;0.10;;;14.90;99.90;;;;;;4955884;28;20152;-64
2023/09/16 06:40:27;;;;;;;0.35;0.35;;;15.00;99.90;;;;;;4971394;28;20038;-63
2023/09/16 06:42:52;;;;;;;0.47;0.47;;;15.00;99.90;;;;;;4972084;28;20035;-64
2023/09/16 06:45:18;;;;;;;2.00;0.90;;;15.10;99.90;;;;;;4972979;28;20058;-64
2023/09/16 06:47:44;;;;;;;0.70;0.57;;;15.10;99.90;;;;;;4971677;28;20054;-63
2023/09/16 06:50:10;;;;;;;1.80;1.33;;;15.20;99.90;;;;;;4971527;28;20042;-64
2023/09/16 06:52:37;;;;;;;0.25;0.25;;;15.30;99.90;;;;;;4953775;28;20134;-64
2023/09/16 06:55:03;;;;;;;2.85;1.35;;;15.30;99.90;;;;;;4973058;28;20063;-64
2023/09/16 06:57:29;;;;;;;0.00;0.00;;;15.40;99.90;;;;;;4970797;28;20043;-63
2023/09/16 06:59:55;;;;;;;0.00;0.00;;;15.40;99.90;;;;;;4972491;28;20045;-64
2023/09/16 07:02:22;;;;;;;2.88;0.95;;;15.50;99.90;;;;;;4973039;28;20054;-64
2023/09/16 07:04:48;;;;;;;0.45;0.38;;;15.50;99.90;;;;;;4954665;28;20070;-64
2023/09/16 07:07:14;;;;;;;1.05;0.65;;;15.60;99.90;;;;;;4970836;28;20140;-64
2023/09/16 07:09:39;;;;;;;0.17;0.17;;;15.60;99.90;;;;;;4971134;28;20047;-64
2023/09/16 07:12:06;;;;;;;0.30;0.30;;;15.60;99.90;;;;;;4971943;28;20042;-63
2023/09/16 07:14:35;;;;;;;0.05;0.03;;;15.70;99.90;;;;;;4955676;28;20094;-64
2023/09/16 07:17:01;;;;;;;0.55;0.45;;;15.70;99.90;;;;;;4972651;28;20110;-63
2023/09/16 07:19:26;;;;;;;0.13;0.13;;;15.80;99.90;;;;;;4970011;28;20047;-63
2023/09/16 07:21:52;;;;;;;0.32;0.32;;;15.90;99.90;;;;;;4972587;28;20049;-63
2023/09/16 07:24:17;;;;;;;0.00;0.00;;;15.90;99.90;;;;;;4972369;28;20046;-63
2023/09/16 07:26:44;;;;;;;1.08;0.57;;;16.00;99.90;;;;;;4972632;28;20047;-63
2023/09/16 07:29:10;;;;;;;0.47;0.45;;;16.00;99.90;;;;;;4970564;28;20569;-63
2023/09/16 07:31:35;;;;;;;0.30;0.30;;;16.00;99.90;;;;;;4971713;28;20159;-63
2023/09/16 07:34:01;;;;;;;0.10;0.10;;;16.10;99.90;;;;;;4970808;28;20464;-63
2023/09/16 07:36:27;;;;;;;0.20;0.20;;;16.10;99.90;;;;;;4974778;28;20046;-63
2023/09/16 07:38:52;;;;;;;0.10;0.10;;;16.20;99.90;;;;;;4975969;28;20102;-63
2023/09/16 07:41:18;;;;;;;0.20;0.20;;;16.30;99.90;;;;;;4974536;28;20051;-63
2023/09/16 07:43:44;;;;;;;0.25;0.25;;;16.30;99.90;;;;;;4976534;28;20046;-63
2023/09/16 07:46:09;;;;;;;0.00;0.00;;;16.40;99.90;;;;;;4975206;28;20047;-64
2023/09/16 07:48:35;;;;;;;0.00;0.00;;;16.50;99.90;;;;;;4976416;28;20051;-63
2023/09/16 07:51:00;;;;;;;0.20;0.20;;;16.50;99.90;;;;;;4974399;28;20371;-63
2023/09/16 07:53:26;;;;;;;0.00;0.00;;;16.60;99.90;;;;;;4957792;28;20096;-64
2023/09/16 07:55:52;;;;;;;0.05;0.05;;;16.70;99.90;;;;;;4974394;28;20053;-63
2023/09/16 07:58:17;;;;;;;0.03;0.03;;;16.70;99.90;;;;;;4975828;28;20039;-63
2023/09/16 08:00:43;;;;;;;0.38;0.38;;;16.80;99.90;;;;;;4974990;28;20043;-63
2023/09/16 08:03:09;;;;;;;1.05;0.30;;;16.90;99.90;;;;;;4973842;28;20062;-63
2023/09/16 08:05:34;;;;;;;0.00;0.00;;;16.90;99.90;;;;;;4975783;28;20043;-63
2023/09/16 08:08:00;;;;;;;0.10;0.10;;;17.00;99.90;;;;;;4975128;28;20050;-63
2023/09/16 08:10:26;;;;;;;0.30;0.30;;;17.00;99.90;;;;;;4976004;28;20035;-63
2023/09/16 08:12:51;;;;;;;0.45;0.45;;;17.10;99.90;;;;;;4972345;28;20055;-63
2023/09/16 08:15:17;;;;;;;0.10;0.10;;;17.20;99.90;;;;;;4974916;28;20052;-64
2023/09/16 08:17:43;;;;;;;0.40;0.40;;;17.30;99.90;;;;;;4975492;28;20137;-63
2023/09/16 08:20:09;;;;;;;0.00;0.00;;;17.30;99.90;;;;;;4972425;28;20109;-63
2023/09/16 08:22:35;;;;;;;3.42;0.80;;;17.40;99.90;;;;;;4972755;28;20079;-63
2023/09/16 08:25:03;;;;;;;0.30;0.30;;;17.50;99.90;;;;;;4975135;28;20438;-63
2023/09/16 08:27:28;;;;;;;0.20;0.20;;;17.60;99.90;;;;;;4958378;28;20051;-63
2023/09/16 08:29:54;;;;;;;0.20;0.20;;;17.60;99.90;;;;;;4973076;28;20054;-63
2023/09/16 08:32:22;;;;;;;0.00;0.00;;;17.70;99.90;;;;;;4957863;28;20109;-63
2023/09/16 08:34:50;;;;;;;0.00;0.00;;;17.80;99.90;;;;;;4973020;28;20482;-63
2023/09/16 08:37:16;;;;;;;0.00;0.00;;;17.90;99.90;;;;;;4975682;28;20042;-63
2023/09/16 08:39:42;;;;;;;0.20;0.20;;;17.90;99.90;;;;;;4973883;28;20426;-63
2023/09/16 08:42:22;;;;;;;0.52;0.30;;;18.00;99.90;;;;;;4974548;28;20543;-63
2023/09/16 08:44:52;;;;;;;0.30;0.30;;;18.60;99.90;;;;;;4975581;28;20049;-63
2023/09/16 08:47:39;;;;;;;0.10;0.10;;;19.20;99.90;;;;;;4974473;28;20379;-63
2023/09/16 08:50:07;;;;;;;0.20;0.20;;;19.70;99.90;;;;;;4966564;28;20508;-63
2023/09/16 08:52:57;;;;;;;0.05;0.05;;;20.60;99.90;;;;;;4975444;28;20071;-63
2023/09/16 08:55:23;;;;;;;0.20;0.20;;;21.50;99.90;;;;;;4975319;28;20050;-63
2023/09/16 08:57:56;;;;;;;1.35;0.30;;;22.30;99.90;;;;;;4972848;28;20478;-64
2023/09/16 09:00:21;;;;;;;0.00;0.00;;;22.80;99.90;;;;;;4975390;28;20106;-64
2023/09/16 09:02:48;;;;;;;0.43;0.43;;;23.30;99.90;;;;;;4974403;28;20758;-63
2023/09/16 09:05:15;;;;;;;0.10;0.10;;;23.70;99.90;;;;;;4975284;28;20092;-64
2023/09/16 09:07:42;;;;;;;0.05;0.05;;;24.10;99.90;;;;;;4973332;28;20440;-64
2023/09/16 09:10:10;;;;;;;0.75;0.17;;;24.40;99.90;;;;;;4974500;28;20490;-64
2023/09/16 09:12:39;;;;;;;0.00;0.00;;;24.60;99.90;;;;;;4975137;28;20057;-64
2023/09/16 09:15:10;;;;;;;0.30;0.30;;;24.90;99.90;;;;;;4955961;28;20485;-64
2023/09/16 09:17:48;;;;;;;0.00;0.00;;;24.90;99.90;;;;;;4974142;28;20497;-64
2023/09/16 09:20:22;;;;;;;0.08;0.08;;;25.10;99.90;;;;;;4959862;28;20580;-64
2023/09/16 09:22:50;;;;;;;0.00;0.00;;;25.20;99.90;;;;;;4972704;28;20046;-64
2023/09/16 09:25:19;;;;;;;0.20;0.10;;;25.40;99.90;;;;;;4969436;28;20058;-64
2023/09/16 09:27:45;;;;;;;1.00;0.73;;;25.50;99.90;;;;;;4974351;28;20047;-64
2023/09/16 09:30:11;;;;;;;0.28;0.28;;;25.60;99.90;;;;;;4972651;28;20041;-64
2023/09/16 09:32:37;;;;;;;0.10;0.10;;;25.50;99.90;;;;;;4973449;28;20050;-64
2023/09/16 09:35:07;;;;;;;4.40;0.38;;;25.50;99.90;;;;;;4974137;28;20051;-64
2023/09/16 09:37:33;;;;;;;0.00;0.00;;;25.60;99.90;;;;;;4974028;28;20069;-64
2023/09/16 09:40:09;;;;;;;0.32;0.32;;;26.00;99.90;;;;;;4971740;28;20039;-64
2023/09/16 09:43:01;;;;;;;0.30;0.30;;;26.10;99.90;;;;;;4966951;28;20043;-64
2023/09/16 09:45:29;;;;;;;0.35;0.35;;;26.20;99.90;;;;;;4970783;28;20066;-64
2023/09/16 09:47:55;;;;;;;0.13;0.13;;;25.90;99.90;;;;;;4972079;28;20062;-64
2023/09/16 09:50:22;;;;;;;0.00;0.00;;;26.10;99.90;;;;;;4974062;28;20047;-64
2023/09/16 09:52:50;;;;;;;4.68;0.13;;;26.20;99.90;;;;;;4973256;28;20047;-64
2023/09/16 09:55:27;;;;;;;0.00;0.00;;;26.20;99.90;;;;;;4972750;28;20058;-64
2023/09/16 09:57:53;;;;;;;0.00;0.00;;;26.40;99.90;;;;;;4973376;28;20045;-64
2023/09/16 10:00:21;;;;;;;0.00;0.00;;;26.60;99.90;;;;;;4973315;28;20035;-64
2023/09/16 10:02:47;;;;;;;0.47;0.22;;;26.40;99.90;;;;;;4973649;28;20058;-64
2023/09/16 10:05:18;;;;;;;0.20;0.10;;;26.10;99.90;;;;;;4972272;28;20050;-64
2023/09/16 10:07:46;;;;;;;0.00;0.00;;;26.00;99.90;;;;;;4971540;28;20054;-64
2023/09/16 10:10:21;;;;;;;0.00;0.00;;;25.70;99.90;;;;;;4973900;28;20042;-64
2023/09/16 10:12:48;;;;;;;0.55;0.52;;;25.40;99.90;;;;;;4972013;28;20077;-64
2023/09/16 10:15:14;;;;;;;0.15;0.10;;;25.00;99.90;;;;;;4955408;28;20046;-64
2023/09/16 10:17:45;;;;;;;0.00;0.00;;;25.20;99.90;;;;;;4971901;28;20363;-64
2023/09/16 10:20:11;;;;;;;0.00;0.00;;;25.10;99.90;;;;;;4955278;28;20052;-63
2023/09/16 10:22:40;;;;;;;0.00;0.00;;;25.10;99.90;;;;;;4973055;28;20054;-64
2023/09/16 10:25:07;;;;;;;0.00;0.00;;;25.00;99.90;;;;;;4971402;28;20051;-64
2023/09/16 10:27:44;;;;;;;0.00;0.00;;;25.00;99.90;;;;;;4972449;28;20043;-64
2023/09/16 10:30:13;;;;;;;0.00;0.00;;;25.00;99.90;;;;;;4973295;28;20046;-64
2023/09/16 10:32:39;;;;;;;0.00;0.00;;;25.10;99.90;;;;;;4971168;28;20450;-64
2023/09/16 10:35:06;;;;;;;0.05;0.05;;;25.10;99.90;;;;;;4972403;28;20124;-64
2023/09/16 10:37:35;;;;;;;0.00;0.00;;;25.10;99.90;;;;;;4973006;28;20486;-64
2023/09/16 10:40:04;;;;;;;0.40;0.25;;;25.10;99.90;;;;;;4954554;28;20070;-64
2023/09/16 10:42:33;;;;;;;0.00;0.00;;;25.20;99.90;;;;;;4972063;28;20047;-64
2023/09/16 10:45:01;;;;;;;0.00;0.00;;;25.20;99.90;;;;;;4973302;28;20053;-64
2023/09/16 10:47:27;;;;;;;0.00;0.00;;;24.90;99.90;;;;;;4972773;28;20070;-64
2023/09/16 10:49:54;;;;;;;0.00;0.00;;;24.80;99.90;;;;;;4970671;28;20129;-64
2023/09/16 10:52:25;;;;;;;0.00;0.00;;;24.70;99.90;;;;;;4971188;28;20486;-64
2023/09/16 10:55:31;;;;;;;3.10;0.30;;;24.80;99.90;;;;;;4972494;28;20149;-64
2023/09/16 10:58:09;;;;;;;0.08;0.08;;;25.00;99.90;;;;;;4924269;29;20044;-64
2023/09/16 11:00:48;;;;;;;0.00;0.00;;;25.00;99.90;;;;;;4965860;28;20103;-64
2023/09/16 11:03:15;;;;;;;0.20;0.20;;;25.20;99.90;;;;;;4970586;28;20053;-64
2023/09/16 11:05:41;;;;;;;0.00;0.00;;;25.20;99.90;;;;;;4955626;28;20077;-64
2023/09/16 11:08:07;;;;;;;0.43;0.20;;;25.40;99.90;;;;;;4972727;28;20043;-64
2023/09/16 11:10:33;;;;;;;0.10;0.10;;;25.30;99.90;;;;;;4971568;28;20481;-64
2023/09/16 11:13:00;;;;;;;0.00;0.00;;;25.60;99.90;;;;;;4959110;28;20057;-63
2023/09/16 11:15:33;;;;;;;3.63;0.30;;;25.70;99.90;;;;;;4959500;28;20043;-64
2023/09/16 11:18:08;;;;;;;0.05;0.05;;;25.40;99.90;;;;;;4976246;28;20043;-66
2023/09/16 11:20:36;;;;;;;0.10;0.10;;;25.70;99.90;;;;;;4975200;28;20046;-64
2023/09/16 11:23:06;;;;;;;0.40;0.32;;;25.70;99.90;;;;;;4976480;28;20043;-64
2023/09/16 11:25:36;;;;;;;0.00;0.00;;;25.70;99.90;;;;;;4976114;28;20066;-64
2023/09/16 11:28:07;;;;;;;0.00;0.00;;;25.90;99.90;;;;;;4976722;28;20129;-64
2023/09/16 11:30:35;;;;;;;0.10;0.10;;;26.20;99.90;;;;;;4974855;28;20050;-64
2023/09/16 11:33:00;;;;;;;2.08;0.35;;;26.20;99.90;;;;;;4976362;28;20058;-64
2023/09/16 11:35:29;;;;;;;0.15;0.15;;;26.40;99.90;;;;;;4974544;28;20043;-64
2023/09/16 11:37:56;;;;;;;0.82;0.75;;;26.30;99.90;;;;;;4972308;28;20057;-63
2023/09/16 11:40:29;;;;;;;0.05;0.05;;;25.90;99.90;;;;;;4976124;28;20038;-64
2023/09/16 11:42:58;;;;;;;0.00;0.00;;;26.20;99.90;;;;;;4975167;28;20597;-64
2023/09/16 11:45:24;;;;;;;0.00;0.00;;;26.40;99.90;;;;;;4958008;28;20101;-64
2023/09/16 11:47:50;;;;;;;0.00;0.00;;;26.50;99.90;;;;;;4976092;28;20495;-64
2023/09/16 11:50:24;;;;;;;0.00;0.00;;;26.30;99.90;;;;;;4974094;28;20053;-64
2023/09/16 11:52:49;;;;;;;0.00;0.00;;;25.90;99.90;;;;;;4969148;28;20106;-64
2023/09/16 11:55:16;;;;;;;0.00;0.00;;;25.70;99.90;;;;;;4974061;28;20401;-64
2023/09/16 11:57:42;;;;;;;0.00;0.00;;;25.80;99.90;;;;;;4976139;28;20042;-64
2023/09/16 12:00:10;;;;;;;0.10;0.10;;;26.00;99.90;;;;;;4973921;28;20039;-64
2023/09/16 12:02:35;;;;;;;0.00;0.00;;;26.20;99.90;;;;;;4974258;28;20030;-64
2023/09/16 12:05:04;;;;;;;0.03;0.03;;;26.30;99.90;;;;;;4975848;28;20114;-64
2023/09/16 12:07:31;;;;;;;0.00;0.00;;;26.70;99.90;;;;;;4975334;28;20043;-64
2023/09/16 12:09:59;;;;;;;0.00;0.00;;;27.00;99.90;;;;;;4958514;28;20039;-64
2023/09/16 12:12:25;;;;;;;1.27;0.17;;;26.90;99.90;;;;;;4973851;28;20050;-64
2023/09/16 12:14:51;;;;;;;0.00;0.00;;;26.60;99.90;;;;;;4974930;28;20043;-63
2023/09/16 12:17:18;;;;;;;0.13;0.13;;;26.50;99.90;;;;;;4976010;28;20138;-64
2023/09/16 12:19:54;;;;;;;0.00;0.00;;;26.40;99.90;;;;;;4973310;28;20375;-64
2023/09/16 12:22:21;;;;;;;0.20;0.20;;;26.50;99.90;;;;;;4973144;28;20126;-64
2023/09/16 12:24:47;;;;;;;0.20;0.10;;;26.80;99.90;;;;;;4973902;28;20039;-64
2023/09/16 12:27:13;;;;;;;0.00;0.00;;;26.90;99.90;;;;;;4968575;28;20065;-64
2023/09/16 12:29:39;;;;;;;0.10;0.10;;;27.20;99.90;;;;;;4973280;28;20470;-63
2023/09/16 12:32:13;;;;;;;0.30;0.30;;;27.30;99.90;;;;;;4975462;28;20047;-64
2023/09/16 12:34:39;;;;;;;0.00;0.00;;;27.30;99.90;;;;;;4972861;28;20391;-64
2023/09/16 12:37:05;;;;;;;0.00;0.00;;;27.60;99.90;;;;;;4975325;28;20065;-64
2023/09/16 12:39:35;;;;;;;0.00;0.00;;;27.60;99.90;;;;;;4973613;28;20050;-64
2023/09/16 12:42:05;;;;;;;5.10;1.42;;;27.20;99.90;;;;;;4971113;28;20062;-64
2023/09/16 12:44:33;;;;;;;0.10;0.10;;;26.80;99.90;;;;;;4959212;28;20042;-64
2023/09/16 12:46:59;;;;;;;0.00;0.00;;;26.90;99.90;;;;;;4973378;28;20410;-64
2023/09/16 12:49:27;;;;;;;0.47;0.22;;;26.90;99.90;;;;;;4974327;28;20053;-64
2023/09/16 12:51:54;;;;;;;0.00;0.00;;;27.00;99.90;;;;;;4975073;28;20880;-64
2023/09/16 12:54:20;;;;;;;0.15;0.15;;;27.20;99.90;;;;;;4973288;28;20126;-64
2023/09/16 12:56:52;;;;;;;0.00;0.00;;;27.20;99.90;;;;;;4972223;28;20125;-64
2023/09/16 12:59:18;;;;;;;0.30;0.30;;;27.20;99.90;;;;;;4974973;28;20125;-64